sensor_id;sensor_type;location;lat;lon;timestamp;pressure;altitude;pressure_sealevel;temperature;humidity
60832;BME280;46665;51.558;-0.448;2023-04-02T00:00:19;101271.75;;;6.63;100.00
60832;BME280;46665;51.558;-0.448;2023-04-02T00:03:04;101276.34;;;6.62;100.00
60832;BME280;46665;51.558;-0.448;2023-04-02T00:05:51;101274.34;;;6.58;100.00
60832;BME280;46665;51.558;-0.448;2023-04-02T00:08:37;101285.97;;;6.58;100.00
60832;BME280;46665;51.558;-0.448;2023-04-02T00:11:33;101294.94;;;6.59;100.00
60832;BME280;46665;51.558;-0.448;2023-04-02T00:17:07;101296.56;;;6.60;100.00
60832;BME280;46665;51.558;-0.448;2023-04-02T00:19:57;101307.28;;;6.55;100.00
60832;BME280;46665;51.558;-0.448;2023-04-02T00:22:43;101302.94;;;6.54;100.00
60832;BME280;46665;51.558;-0.448;2023-04-02T00:25:36;101310.22;;;6.53;100.00
60832;BME280;46665;51.558;-0.448;2023-04-02T00:28:25;101309.28;;;6.47;100.00
60832;BME280;46665;51.558;-0.448;2023-04-02T00:31:10;101315.88;;;6.51;100.00
60832;BME280;46665;51.558;-0.448;2023-04-02T00:33:56;101316.09;;;6.50;100.00
60832;BME280;46665;51.558;-0.448;2023-04-02T00:36:42;101320.69;;;6.49;100.00
60832;BME280;46665;51.558;-0.448;2023-04-02T00:39:33;101328.56;;;6.51;100.00
60832;BME280;46665;51.558;-0.448;2023-04-02T00:42:22;101330.44;;;6.50;100.00
60832;BME280;46665;51.558;-0.448;2023-04-02T00:45:23;101325.88;;;6.51;100.00
60832;BME280;46665;51.558;-0.448;2023-04-02T00:51:19;101337.88;;;6.43;100.00
60832;BME280;46665;51.558;-0.448;2023-04-02T00:54:06;101343.63;;;6.35;100.00
60832;BME280;46665;51.558;-0.448;2023-04-02T00:56:54;101333.06;;;6.34;100.00
60832;BME280;46665;51.558;-0.448;2023-04-02T00:59:52;101342.22;;;6.33;100.00
60832;BME280;46665;51.558;-0.448;2023-04-02T01:02:38;101340.22;;;6.28;100.00
60832;BME280;46665;51.558;-0.448;2023-04-02T01:05:23;101354.56;;;6.28;100.00
60832;BME280;46665;51.558;-0.448;2023-04-02T01:18:12;101381.34;;;6.18;100.00
60832;BME280;46665;51.558;-0.448;2023-04-02T01:24:04;101386.03;;;6.11;100.00
60832;BME280;46665;51.558;-0.448;2023-04-02T01:26:55;101382.66;;;6.16;100.00
60832;BME280;46665;51.558;-0.448;2023-04-02T01:29:47;101394.28;;;6.16;100.00
60832;BME280;46665;51.558;-0.448;2023-04-02T01:32:34;101396.03;;;6.11;100.00
60832;BME280;46665;51.558;-0.448;2023-04-02T01:35:20;101393.19;;;6.05;100.00
60832;BME280;46665;51.558;-0.448;2023-04-02T01:38:12;101397.53;;;6.06;100.00
60832;BME280;46665;51.558;-0.448;2023-04-02T01:41:08;101391.19;;;6.01;100.00
60832;BME280;46665;51.558;-0.448;2023-04-02T01:44:06;101398.69;;;5.99;100.00
60832;BME280;46665;51.558;-0.448;2023-04-02T01:46:51;101400.00;;;5.96;100.00
60832;BME280;46665;51.558;-0.448;2023-04-02T01:49:35;101395.41;;;5.97;100.00
60832;BME280;46665;51.558;-0.448;2023-04-02T01:52:32;101400.59;;;5.98;100.00
60832;BME280;46665;51.558;-0.448;2023-04-02T01:55:41;101398.47;;;6.00;100.00
60832;BME280;46665;51.558;-0.448;2023-04-02T01:58:31;101404.56;;;6.07;100.00
60832;BME280;46665;51.558;-0.448;2023-04-02T02:01:18;101397.66;;;6.12;100.00
60832;BME280;46665;51.558;-0.448;2023-04-02T02:04:05;101395.56;;;6.14;100.00
60832;BME280;46665;51.558;-0.448;2023-04-02T02:06:50;101409.41;;;6.17;100.00
60832;BME280;46665;51.558;-0.448;2023-04-02T02:09:35;101402.50;;;6.21;100.00
60832;BME280;46665;51.558;-0.448;2023-04-02T02:12:19;101417.44;;;6.24;100.00
60832;BME280;46665;51.558;-0.448;2023-04-02T02:15:03;101410.38;;;6.23;100.00
60832;BME280;46665;51.558;-0.448;2023-04-02T02:17:56;101405.91;;;6.17;100.00
60832;BME280;46665;51.558;-0.448;2023-04-02T02:20:41;101415.63;;;6.18;100.00
60832;BME280;46665;51.558;-0.448;2023-04-02T02:23:26;101422.50;;;6.20;100.00
60832;BME280;46665;51.558;-0.448;2023-04-02T02:26:12;101420.34;;;6.22;100.00
60832;BME280;46665;51.558;-0.448;2023-04-02T02:28:57;101428.25;;;6.24;100.00
60832;BME280;46665;51.558;-0.448;2023-04-02T02:31:44;101429.06;;;6.24;100.00
60832;BME280;46665;51.558;-0.448;2023-04-02T02:34:40;101431.88;;;6.29;100.00
60832;BME280;46665;51.558;-0.448;2023-04-02T02:37:28;101435.19;;;6.32;100.00
60832;BME280;46665;51.558;-0.448;2023-04-02T02:40:19;101446.00;;;6.32;100.00
60832;BME280;46665;51.558;-0.448;2023-04-02T02:43:05;101450.09;;;6.34;100.00
60832;BME280;46665;51.558;-0.448;2023-04-02T02:45:54;101455.03;;;6.37;100.00
60832;BME280;46665;51.558;-0.448;2023-04-02T02:48:39;101453.16;;;6.38;100.00
60832;BME280;46665;51.558;-0.448;2023-04-02T02:51:38;101464.22;;;6.36;100.00
60832;BME280;46665;51.558;-0.448;2023-04-02T02:54:22;101456.94;;;6.37;100.00
60832;BME280;46665;51.558;-0.448;2023-04-02T02:57:13;101458.56;;;6.38;100.00
60832;BME280;46665;51.558;-0.448;2023-04-02T03:00:00;101468.34;;;6.39;100.00
60832;BME280;46665;51.558;-0.448;2023-04-02T03:02:45;101478.09;;;6.40;100.00
60832;BME280;46665;51.558;-0.448;2023-04-02T03:05:30;101477.88;;;6.41;100.00
60832;BME280;46665;51.558;-0.448;2023-04-02T03:08:23;101483.88;;;6.43;100.00
60832;BME280;46665;51.558;-0.448;2023-04-02T03:11:14;101480.31;;;6.43;100.00
60832;BME280;46665;51.558;-0.448;2023-04-02T03:17:33;101496.53;;;6.43;100.00
60832;BME280;46665;51.558;-0.448;2023-04-02T03:20:54;101487.59;;;6.42;100.00
60832;BME280;46665;51.558;-0.448;2023-04-02T03:23:34;101494.56;;;6.38;100.00
60832;BME280;46665;51.558;-0.448;2023-04-02T03:26:50;101507.09;;;6.33;100.00
60832;BME280;46665;51.558;-0.448;2023-04-02T03:29:40;101502.06;;;6.36;100.00
60832;BME280;46665;51.558;-0.448;2023-04-02T03:32:29;101514.16;;;6.34;100.00
60832;BME280;46665;51.558;-0.448;2023-04-02T03:41:21;101514.63;;;6.31;100.00
60832;BME280;46665;51.558;-0.448;2023-04-02T03:44:18;101524.59;;;6.30;100.00
60832;BME280;46665;51.558;-0.448;2023-04-02T03:47:11;101524.38;;;6.32;100.00
60832;BME280;46665;51.558;-0.448;2023-04-02T03:52:47;101530.13;;;6.23;100.00
60832;BME280;46665;51.558;-0.448;2023-04-02T03:55:34;101550.22;;;6.27;100.00
60832;BME280;46665;51.558;-0.448;2023-04-02T03:58:23;101546.69;;;6.27;100.00
60832;BME280;46665;51.558;-0.448;2023-04-02T04:01:23;101553.50;;;6.29;100.00
60832;BME280;46665;51.558;-0.448;2023-04-02T04:04:15;101555.63;;;6.27;100.00
60832;BME280;46665;51.558;-0.448;2023-04-02T04:07:00;101555.03;;;6.25;100.00
60832;BME280;46665;51.558;-0.448;2023-04-02T04:09:46;101560.22;;;6.27;100.00
60832;BME280;46665;51.558;-0.448;2023-04-02T04:12:42;101560.06;;;6.22;100.00
60832;BME280;46665;51.558;-0.448;2023-04-02T04:15:36;101554.66;;;6.22;100.00
60832;BME280;46665;51.558;-0.448;2023-04-02T04:21:26;101574.88;;;6.19;100.00
60832;BME280;46665;51.558;-0.448;2023-04-02T04:24:24;101581.09;;;6.20;100.00
60832;BME280;46665;51.558;-0.448;2023-04-02T04:27:30;101579.25;;;6.20;100.00
60832;BME280;46665;51.558;-0.448;2023-04-02T04:30:24;101579.06;;;6.15;100.00
60832;BME280;46665;51.558;-0.448;2023-04-02T04:33:26;101587.34;;;6.20;100.00
60832;BME280;46665;51.558;-0.448;2023-04-02T04:36:30;101575.09;;;6.18;100.00
60832;BME280;46665;51.558;-0.448;2023-04-02T04:39:30;101584.66;;;6.20;100.00
60832;BME280;46665;51.558;-0.448;2023-04-02T04:42:27;101590.47;;;6.17;100.00
60832;BME280;46665;51.558;-0.448;2023-04-02T04:45:53;101607.09;;;6.21;100.00
60832;BME280;46665;51.558;-0.448;2023-04-02T04:48:51;101615.06;;;6.16;100.00
60832;BME280;46665;51.558;-0.448;2023-04-02T04:51:53;101607.63;;;6.11;100.00
60832;BME280;46665;51.558;-0.448;2023-04-02T04:54:39;101626.06;;;6.14;100.00
60832;BME280;46665;51.558;-0.448;2023-04-02T05:00:24;101623.16;;;6.16;100.00
60832;BME280;46665;51.558;-0.448;2023-04-02T05:03:22;101645.59;;;6.16;100.00
60832;BME280;46665;51.558;-0.448;2023-04-02T05:06:14;101649.34;;;6.15;100.00
60832;BME280;46665;51.558;-0.448;2023-04-02T05:15:31;101673.28;;;6.12;100.00
60832;BME280;46665;51.558;-0.448;2023-04-02T05:18:46;101682.53;;;6.04;100.00
60832;BME280;46665;51.558;-0.448;2023-04-02T05:21:47;101678.19;;;6.03;100.00
60832;BME280;46665;51.558;-0.448;2023-04-02T05:30:50;101701.91;;;6.01;100.00
60832;BME280;46665;51.558;-0.448;2023-04-02T05:33:37;101714.81;;;5.99;100.00
60832;BME280;46665;51.558;-0.448;2023-04-02T05:36:27;101707.78;;;5.91;100.00
60832;BME280;46665;51.558;-0.448;2023-04-02T05:39:23;101705.09;;;5.91;100.00
60832;BME280;46665;51.558;-0.448;2023-04-02T05:42:15;101716.97;;;5.90;100.00
60832;BME280;46665;51.558;-0.448;2023-04-02T05:48:17;101737.97;;;5.88;100.00
60832;BME280;46665;51.558;-0.448;2023-04-02T05:51:05;101734.34;;;5.76;100.00
60832;BME280;46665;51.558;-0.448;2023-04-02T05:53:54;101739.91;;;5.81;100.00
60832;BME280;46665;51.558;-0.448;2023-04-02T05:56:45;101752.50;;;5.87;100.00
60832;BME280;46665;51.558;-0.448;2023-04-02T05:59:36;101745.44;;;5.86;100.00
60832;BME280;46665;51.558;-0.448;2023-04-02T06:02:30;101753.09;;;5.89;100.00
60832;BME280;46665;51.558;-0.448;2023-04-02T06:05:19;101758.97;;;5.86;100.00
60832;BME280;46665;51.558;-0.448;2023-04-02T06:08:10;101774.50;;;5.91;100.00
60832;BME280;46665;51.558;-0.448;2023-04-02T06:14:24;101786.44;;;5.83;100.00
60832;BME280;46665;51.558;-0.448;2023-04-02T06:17:17;101780.41;;;5.81;100.00
60832;BME280;46665;51.558;-0.448;2023-04-02T06:20:03;101786.44;;;5.83;100.00
60832;BME280;46665;51.558;-0.448;2023-04-02T06:22:57;101792.03;;;5.81;100.00
60832;BME280;46665;51.558;-0.448;2023-04-02T06:25:47;101799.31;;;5.81;100.00
60832;BME280;46665;51.558;-0.448;2023-04-02T06:28:41;101792.69;;;5.77;100.00
60832;BME280;46665;51.558;-0.448;2023-04-02T06:31:39;101806.00;;;5.78;100.00
60832;BME280;46665;51.558;-0.448;2023-04-02T06:34:29;101813.28;;;5.78;100.00
60832;BME280;46665;51.558;-0.448;2023-04-02T06:37:25;101817.00;;;5.77;100.00
60832;BME280;46665;51.558;-0.448;2023-04-02T06:43:25;101831.19;;;5.72;100.00
60832;BME280;46665;51.558;-0.448;2023-04-02T06:46:34;101840.31;;;5.71;100.00
60832;BME280;46665;51.558;-0.448;2023-04-02T06:49:35;101843.84;;;5.72;100.00
60832;BME280;46665;51.558;-0.448;2023-04-02T06:52:37;101845.09;;;5.69;100.00
60832;BME280;46665;51.558;-0.448;2023-04-02T06:58:07;101826.50;;;5.54;100.00
60832;BME280;46665;51.558;-0.448;2023-04-02T07:00:52;101820.91;;;5.56;100.00
60832;BME280;46665;51.558;-0.448;2023-04-02T07:03:36;101852.34;;;5.75;100.00
60832;BME280;46665;51.558;-0.448;2023-04-02T07:06:20;101873.50;;;5.78;100.00
60832;BME280;46665;51.558;-0.448;2023-04-02T07:09:05;101865.41;;;5.78;100.00
60832;BME280;46665;51.558;-0.448;2023-04-02T07:11:50;101861.25;;;5.82;100.00
60832;BME280;46665;51.558;-0.448;2023-04-02T07:14:34;101865.13;;;5.86;100.00
60832;BME280;46665;51.558;-0.448;2023-04-02T07:17:19;101868.91;;;5.85;100.00
60832;BME280;46665;51.558;-0.448;2023-04-02T07:20:04;101870.94;;;5.90;100.00
60832;BME280;46665;51.558;-0.448;2023-04-02T07:22:48;101878.00;;;5.91;100.00
60832;BME280;46665;51.558;-0.448;2023-04-02T07:25:32;101877.16;;;5.91;100.00
60832;BME280;46665;51.558;-0.448;2023-04-02T07:28:16;101891.91;;;5.95;100.00
60832;BME280;46665;51.558;-0.448;2023-04-02T07:31:01;101894.59;;;5.95;100.00
60832;BME280;46665;51.558;-0.448;2023-04-02T07:33:45;101888.78;;;5.98;100.00
60832;BME280;46665;51.558;-0.448;2023-04-02T07:36:30;101893.75;;;6.01;100.00
60832;BME280;46665;51.558;-0.448;2023-04-02T07:39:14;101897.88;;;6.03;100.00
60832;BME280;46665;51.558;-0.448;2023-04-02T07:42:00;101902.84;;;6.06;100.00
60832;BME280;46665;51.558;-0.448;2023-04-02T07:44:44;101916.34;;;6.06;100.00
60832;BME280;46665;51.558;-0.448;2023-04-02T07:47:28;101924.44;;;6.06;100.00
60832;BME280;46665;51.558;-0.448;2023-04-02T07:50:12;101929.25;;;6.04;100.00
60832;BME280;46665;51.558;-0.448;2023-04-02T07:52:57;101930.97;;;5.99;100.00
60832;BME280;46665;51.558;-0.448;2023-04-02T07:55:41;101928.69;;;5.96;100.00
60832;BME280;46665;51.558;-0.448;2023-04-02T07:58:25;101934.28;;;6.01;100.00
60832;BME280;46665;51.558;-0.448;2023-04-02T08:01:19;101944.03;;;6.02;100.00
60832;BME280;46665;51.558;-0.448;2023-04-02T08:04:04;101946.06;;;6.06;100.00
60832;BME280;46665;51.558;-0.448;2023-04-02T08:06:53;101950.22;;;6.09;100.00
60832;BME280;46665;51.558;-0.448;2023-04-02T08:09:39;101950.66;;;6.06;100.00
60832;BME280;46665;51.558;-0.448;2023-04-02T08:12:24;101950.88;;;6.04;100.00
60832;BME280;46665;51.558;-0.448;2023-04-02T08:15:15;101948.59;;;6.01;100.00
60832;BME280;46665;51.558;-0.448;2023-04-02T08:17:59;101959.38;;;6.08;100.00
60832;BME280;46665;51.558;-0.448;2023-04-02T08:23:19;101930.97;;;5.92;100.00
60832;BME280;46665;51.558;-0.448;2023-04-02T08:26:05;101943.84;;;5.97;100.00
60832;BME280;46665;51.558;-0.448;2023-04-02T08:28:52;101948.41;;;6.03;100.00
60832;BME280;46665;51.558;-0.448;2023-04-02T08:31:37;101951.47;;;6.06;100.00
60832;BME280;46665;51.558;-0.448;2023-04-02T08:34:21;101955.88;;;6.01;100.00
60832;BME280;46665;51.558;-0.448;2023-04-02T08:37:05;101965.81;;;6.07;100.00
60832;BME280;46665;51.558;-0.448;2023-04-02T08:50:56;101980.38;;;6.06;100.00
60832;BME280;46665;51.558;-0.448;2023-04-02T08:53:41;101990.53;;;6.11;100.00
60832;BME280;46665;51.558;-0.448;2023-04-02T08:56:29;102027.41;;;6.30;100.00
60832;BME280;46665;51.558;-0.448;2023-04-02T08:59:22;102021.63;;;6.26;100.00
60832;BME280;46665;51.558;-0.448;2023-04-02T09:05:19;102034.06;;;6.27;100.00
60832;BME280;46665;51.558;-0.448;2023-04-02T09:08:16;102033.03;;;6.28;100.00
60832;BME280;46665;51.558;-0.448;2023-04-02T09:11:07;102045.66;;;6.35;100.00
60832;BME280;46665;51.558;-0.448;2023-04-02T09:13:57;102050.63;;;6.38;100.00
60832;BME280;46665;51.558;-0.448;2023-04-02T09:16:47;102040.88;;;6.37;100.00
60832;BME280;46665;51.558;-0.448;2023-04-02T09:19:36;102053.97;;;6.40;100.00
60832;BME280;46665;51.558;-0.448;2023-04-02T09:22:23;102064.78;;;6.40;100.00
60832;BME280;46665;51.558;-0.448;2023-04-02T09:25:19;102061.03;;;6.41;100.00
60832;BME280;46665;51.558;-0.448;2023-04-02T09:28:04;102070.78;;;6.42;100.00
60832;BME280;46665;51.558;-0.448;2023-04-02T09:33:45;102068.88;;;6.49;100.00
60832;BME280;46665;51.558;-0.448;2023-04-02T09:36:35;102072.41;;;6.49;100.00
60832;BME280;46665;51.558;-0.448;2023-04-02T09:39:22;102076.56;;;6.52;100.00
60832;BME280;46665;51.558;-0.448;2023-04-02T09:42:29;102078.38;;;6.58;100.00
60832;BME280;46665;51.558;-0.448;2023-04-02T09:45:21;102075.81;;;6.63;98.87
60832;BME280;46665;51.558;-0.448;2023-04-02T09:48:36;102083.09;;;6.69;98.32
60832;BME280;46665;51.558;-0.448;2023-04-02T09:51:31;102085.97;;;6.75;99.17
60832;BME280;46665;51.558;-0.448;2023-04-02T09:54:17;102091.31;;;6.81;99.80
60832;BME280;46665;51.558;-0.448;2023-04-02T09:57:02;102089.44;;;6.82;98.47
60832;BME280;46665;51.558;-0.448;2023-04-02T09:59:47;102106.28;;;6.84;97.29
60832;BME280;46665;51.558;-0.448;2023-04-02T10:03:43;102103.59;;;6.84;97.47
60832;BME280;46665;51.558;-0.448;2023-04-02T10:06:12;102104.41;;;6.84;97.31
60832;BME280;46665;51.558;-0.448;2023-04-02T10:08:57;102114.63;;;6.82;96.10
60832;BME280;46665;51.558;-0.448;2023-04-02T10:11:41;102114.81;;;6.81;96.47
60832;BME280;46665;51.558;-0.448;2023-04-02T10:14:32;102135.03;;;6.78;93.79
60832;BME280;46665;51.558;-0.448;2023-04-02T10:17:28;102134.44;;;6.76;95.48
60832;BME280;46665;51.558;-0.448;2023-04-02T10:20:18;102146.25;;;6.82;95.37
60832;BME280;46665;51.558;-0.448;2023-04-02T10:23:16;102137.53;;;6.80;95.81
60832;BME280;46665;51.558;-0.448;2023-04-02T10:26:18;102131.91;;;6.81;96.27
60832;BME280;46665;51.558;-0.448;2023-04-02T10:32:17;102146.44;;;6.87;95.68
60832;BME280;46665;51.558;-0.448;2023-04-02T10:47:37;102144.59;;;7.06;96.45
60832;BME280;46665;51.558;-0.448;2023-04-02T10:50:32;102157.47;;;7.10;95.63
60832;BME280;46665;51.558;-0.448;2023-04-02T10:53:25;102158.75;;;7.08;95.21
60832;BME280;46665;51.558;-0.448;2023-04-02T10:56:13;102163.09;;;7.09;93.95
60832;BME280;46665;51.558;-0.448;2023-04-02T10:59:16;102167.50;;;7.10;94.21
60832;BME280;46665;51.558;-0.448;2023-04-02T11:02:37;102169.13;;;7.11;94.30
60832;BME280;46665;51.558;-0.448;2023-04-02T11:05:31;102171.84;;;7.11;93.99
60832;BME280;46665;51.558;-0.448;2023-04-02T11:08:40;102176.81;;;7.14;92.76
60832;BME280;46665;51.558;-0.448;2023-04-02T11:11:39;102167.88;;;7.13;92.87
60832;BME280;46665;51.558;-0.448;2023-04-02T11:14:27;102177.50;;;7.09;92.37
60832;BME280;46665;51.558;-0.448;2023-04-02T11:17:11;102174.72;;;7.16;92.88
60832;BME280;46665;51.558;-0.448;2023-04-02T11:23:20;102183.00;;;7.21;93.38
60832;BME280;46665;51.558;-0.448;2023-04-02T11:26:27;102188.81;;;7.25;93.58
60832;BME280;46665;51.558;-0.448;2023-04-02T11:29:25;102189.03;;;7.23;91.08
60832;BME280;46665;51.558;-0.448;2023-04-02T11:41:01;102203.47;;;7.42;90.58
60832;BME280;46665;51.558;-0.448;2023-04-02T11:43:49;102203.03;;;7.45;91.71
60832;BME280;46665;51.558;-0.448;2023-04-02T11:46:38;102213.19;;;7.50;92.07
60832;BME280;46665;51.558;-0.448;2023-04-02T11:52:34;102207.53;;;7.51;90.95
60832;BME280;46665;51.558;-0.448;2023-04-02T11:55:25;102217.50;;;7.57;91.28
60832;BME280;46665;51.558;-0.448;2023-04-02T12:07:34;102225.50;;;7.71;89.57
60832;BME280;46665;51.558;-0.448;2023-04-02T12:10:25;102226.09;;;7.73;89.36
60832;BME280;46665;51.558;-0.448;2023-04-02T12:16:24;102225.28;;;7.72;87.27
60832;BME280;46665;51.558;-0.448;2023-04-02T12:19:15;102240.09;;;7.70;85.93
60832;BME280;46665;51.558;-0.448;2023-04-02T12:22:00;102230.47;;;7.74;86.89
60832;BME280;46665;51.558;-0.448;2023-04-02T12:24:47;102240.03;;;7.76;86.91
60832;BME280;46665;51.558;-0.448;2023-04-02T12:27:31;102248.56;;;7.80;86.35
60832;BME280;46665;51.558;-0.448;2023-04-02T12:30:22;102252.09;;;7.80;85.78
60832;BME280;46665;51.558;-0.448;2023-04-02T12:33:33;102258.13;;;7.82;84.22
60832;BME280;46665;51.558;-0.448;2023-04-02T12:36:21;102260.81;;;7.82;85.56
60832;BME280;46665;51.558;-0.448;2023-04-02T12:39:15;102258.66;;;7.91;85.23
60832;BME280;46665;51.558;-0.448;2023-04-02T12:42:00;102263.31;;;8.02;83.31
60832;BME280;46665;51.558;-0.448;2023-04-02T12:44:48;102269.91;;;8.13;84.70
60832;BME280;46665;51.558;-0.448;2023-04-02T12:47:32;102271.47;;;8.21;83.82
60832;BME280;46665;51.558;-0.448;2023-04-02T12:50:16;102274.81;;;8.23;83.19
60832;BME280;46665;51.558;-0.448;2023-04-02T12:53:01;102269.13;;;8.24;83.66
60832;BME280;46665;51.558;-0.448;2023-04-02T12:55:48;102278.84;;;8.32;83.71
60832;BME280;46665;51.558;-0.448;2023-04-02T12:58:36;102279.47;;;8.34;83.90
60832;BME280;46665;51.558;-0.448;2023-04-02T13:01:22;102274.25;;;8.33;82.08
60832;BME280;46665;51.558;-0.448;2023-04-02T13:04:09;102272.00;;;8.30;82.33
60832;BME280;46665;51.558;-0.448;2023-04-02T13:06:55;102286.78;;;8.34;82.67
60832;BME280;46665;51.558;-0.448;2023-04-02T13:09:47;102274.97;;;8.28;81.33
60832;BME280;46665;51.558;-0.448;2023-04-02T13:12:33;102280.59;;;8.27;80.45
60832;BME280;46665;51.558;-0.448;2023-04-02T13:15:21;102281.81;;;8.31;80.63
60832;BME280;46665;51.558;-0.448;2023-04-02T13:21:04;102288.94;;;8.25;76.80
60832;BME280;46665;51.558;-0.448;2023-04-02T13:23:48;102297.84;;;8.32;77.48
60832;BME280;46665;51.558;-0.448;2023-04-02T13:26:32;102292.81;;;8.36;79.49
60832;BME280;46665;51.558;-0.448;2023-04-02T13:29:34;102293.63;;;8.36;75.89
60832;BME280;46665;51.558;-0.448;2023-04-02T13:32:19;102284.63;;;8.61;78.15
60832;BME280;46665;51.558;-0.448;2023-04-02T13:35:03;102285.63;;;8.78;77.94
60832;BME280;46665;51.558;-0.448;2023-04-02T13:37:48;102283.66;;;8.85;76.52
60832;BME280;46665;51.558;-0.448;2023-04-02T13:40:32;102284.53;;;8.98;77.57
60832;BME280;46665;51.558;-0.448;2023-04-02T13:43:18;102283.25;;;9.00;74.21
60832;BME280;46665;51.558;-0.448;2023-04-02T13:46:04;102288.00;;;9.05;76.49
60832;BME280;46665;51.558;-0.448;2023-04-02T13:48:49;102293.66;;;9.03;76.03
60832;BME280;46665;51.558;-0.448;2023-04-02T13:51:44;102304.97;;;9.00;75.25
60832;BME280;46665;51.558;-0.448;2023-04-02T13:54:32;102290.91;;;8.92;72.33
60832;BME280;46665;51.558;-0.448;2023-04-02T13:57:18;102296.41;;;9.15;75.32
60832;BME280;46665;51.558;-0.448;2023-04-02T14:00:03;102300.59;;;9.29;73.93
60832;BME280;46665;51.558;-0.448;2023-04-02T14:02:50;102295.31;;;9.35;68.25
60832;BME280;46665;51.558;-0.448;2023-04-02T14:06:12;102299.06;;;9.33;71.43
60832;BME280;46665;51.558;-0.448;2023-04-02T14:18:10;102285.31;;;10.06;72.00
60832;BME280;46665;51.558;-0.448;2023-04-02T14:24:20;102287.31;;;10.34;65.81
60832;BME280;46665;51.558;-0.448;2023-04-02T14:30:21;102293.34;;;10.12;69.88
60832;BME280;46665;51.558;-0.448;2023-04-02T14:36:39;102293.59;;;10.34;66.26
60832;BME280;46665;51.558;-0.448;2023-04-02T14:42:57;102290.84;;;10.46;66.40
60832;BME280;46665;51.558;-0.448;2023-04-02T14:57:26;102292.50;;;11.33;64.22
60832;BME280;46665;51.558;-0.448;2023-04-02T15:00:25;102296.56;;;11.64;62.98
60832;BME280;46665;51.558;-0.448;2023-04-02T15:03:21;102295.69;;;11.76;59.80
60832;BME280;46665;51.558;-0.448;2023-04-02T15:09:55;102280.06;;;12.27;57.60
60832;BME280;46665;51.558;-0.448;2023-04-02T15:12:42;102289.16;;;12.54;59.59
60832;BME280;46665;51.558;-0.448;2023-04-02T15:15:44;102287.50;;;12.75;57.98
60832;BME280;46665;51.558;-0.448;2023-04-02T15:18:29;102284.13;;;12.90;56.30
60832;BME280;46665;51.558;-0.448;2023-04-02T15:27:25;102281.91;;;13.14;53.88
60832;BME280;46665;51.558;-0.448;2023-04-02T15:30:29;102288.19;;;13.37;55.29
60832;BME280;46665;51.558;-0.448;2023-04-02T15:39:41;102280.84;;;14.85;51.00
60832;BME280;46665;51.558;-0.448;2023-04-02T15:42:29;102295.66;;;16.28;46.52
60832;BME280;46665;51.558;-0.448;2023-04-02T15:48:25;102287.31;;;18.78;40.11
60832;BME280;46665;51.558;-0.448;2023-04-02T16:03:39;102307.28;;;21.84;32.45
60832;BME280;46665;51.558;-0.448;2023-04-02T16:10:15;102302.53;;;19.84;36.28
60832;BME280;46665;51.558;-0.448;2023-04-02T16:13:36;102307.84;;;19.61;35.25
60832;BME280;46665;51.558;-0.448;2023-04-02T16:16:21;102306.94;;;19.66;35.90
60832;BME280;46665;51.558;-0.448;2023-04-02T16:19:18;102309.06;;;18.36;37.27
60832;BME280;46665;51.558;-0.448;2023-04-02T16:22:13;102299.63;;;17.21;39.36
60832;BME280;46665;51.558;-0.448;2023-04-02T16:25:09;102291.63;;;15.64;42.23
60832;BME280;46665;51.558;-0.448;2023-04-02T16:58:24;102310.13;;;10.45;58.82
60832;BME280;46665;51.558;-0.448;2023-04-02T17:01:27;102316.56;;;10.38;59.32
60832;BME280;46665;51.558;-0.448;2023-04-02T17:04:27;102320.22;;;10.32;58.79
60832;BME280;46665;51.558;-0.448;2023-04-02T17:07:34;102313.78;;;10.15;58.17
60832;BME280;46665;51.558;-0.448;2023-04-02T17:13:56;102327.75;;;9.95;59.57
60832;BME280;46665;51.558;-0.448;2023-04-02T17:16:51;102325.63;;;9.85;60.29
60832;BME280;46665;51.558;-0.448;2023-04-02T17:19:38;102325.75;;;9.79;60.88
60832;BME280;46665;51.558;-0.448;2023-04-02T17:22:23;102337.69;;;9.77;61.71
60832;BME280;46665;51.558;-0.448;2023-04-02T17:25:16;102336.84;;;9.77;61.97
60832;BME280;46665;51.558;-0.448;2023-04-02T17:28:02;102341.56;;;9.70;61.62
60832;BME280;46665;51.558;-0.448;2023-04-02T17:30:56;102347.44;;;9.67;61.89
60832;BME280;46665;51.558;-0.448;2023-04-02T17:33:41;102343.91;;;9.54;62.82
60832;BME280;46665;51.558;-0.448;2023-04-02T17:36:32;102352.50;;;9.51;62.46
60832;BME280;46665;51.558;-0.448;2023-04-02T17:42:53;102363.22;;;9.35;62.78
60832;BME280;46665;51.558;-0.448;2023-04-02T17:48:46;102354.19;;;9.22;64.14
60832;BME280;46665;51.558;-0.448;2023-04-02T17:54:39;102366.66;;;9.11;64.69
60832;BME280;46665;51.558;-0.448;2023-04-02T18:00:43;102363.50;;;8.96;65.51
60832;BME280;46665;51.558;-0.448;2023-04-02T18:15:36;102385.38;;;8.64;67.59
60832;BME280;46665;51.558;-0.448;2023-04-02T18:21:36;102401.56;;;8.53;67.90
60832;BME280;46665;51.558;-0.448;2023-04-02T18:30:47;102408.59;;;8.35;69.94
60832;BME280;46665;51.558;-0.448;2023-04-02T18:48:19;102434.09;;;8.02;72.31
60832;BME280;46665;51.558;-0.448;2023-04-02T18:51:20;102432.28;;;7.96;73.31
60832;BME280;46665;51.558;-0.448;2023-04-02T18:56:52;102449.03;;;7.87;74.28
60832;BME280;46665;51.558;-0.448;2023-04-02T18:59:47;102447.59;;;7.84;74.54
60832;BME280;46665;51.558;-0.448;2023-04-02T19:02:41;102443.69;;;7.80;74.84
60832;BME280;46665;51.558;-0.448;2023-04-02T19:08:23;102455.59;;;7.72;74.61
60832;BME280;46665;51.558;-0.448;2023-04-02T19:11:14;102462.72;;;7.67;75.46
60832;BME280;46665;51.558;-0.448;2023-04-02T19:14:01;102459.81;;;7.62;75.22
60832;BME280;46665;51.558;-0.448;2023-04-02T19:20:13;102471.53;;;7.55;76.36
60832;BME280;46665;51.558;-0.448;2023-04-02T19:26:06;102476.31;;;7.53;76.30
60832;BME280;46665;51.558;-0.448;2023-04-02T19:32:06;102482.63;;;7.47;77.42
60832;BME280;46665;51.558;-0.448;2023-04-02T19:35:14;102490.31;;;7.44;77.68
60832;BME280;46665;51.558;-0.448;2023-04-02T19:41:33;102489.56;;;7.30;77.94
60832;BME280;46665;51.558;-0.448;2023-04-02T19:44:20;102498.13;;;7.27;77.89